• Join FlightAware (Why Join?)
  • Login
  • US Flag 
05:17AM EDT


 

Airport Tracker/Info


-or-


 

Live Flight TrackerFlight Track Log ✈ DAL4164 ✈ 07-Sep-2013 ✈ KDTW - KMHT

Flight Track Log - Related Links

Times and Time Zones

All times are in EDT time to prevent confusion due to time zone crossing. See the DAL4164 flight status page for this flight to view local times or setup timezone preferences in your user account.

Time Position Orientation Groundspeed Altitude Reporting Facility
EDT Latitude Longitude Course Direction KTS MPH feet Rate Location/Type
04:13PM 42.1892 -83.3578 174° South 161 185 1,700  Level Cleveland Center
04:14PM 42.1350 -83.3497 174° South 207 238 3,600 1,620 Climbing Cleveland Center
04:15PM 42.0814 -83.3222 159° South 266 306 5,000 1,860 Climbing Cleveland Center
04:16PM 42.0756 -83.2156 94° East 293 337 7,400 1,980 Climbing Cleveland Center
04:18PM 42.1289 -83.0750 63° Northeast 302 348 10,300 1,500 Climbing Cleveland Center
04:19PM 42.1708 -82.9617 63° Northeast 307 353 11,300 1,080 Climbing Cleveland Center
04:20PM 42.2169 -82.8431 62° Northeast 332 382 12,500 1,260 Climbing Cleveland Center
04:21PM 42.2653 -82.7211 62° Northeast 347 399 13,900 1,380 Climbing Cleveland Center
04:22PM 42.3031 -82.5933 68° East 358 412 15,300 1,320 Climbing Cleveland Center
04:23PM 42.3011 -82.4500 91° East 363 418 16,600 1,140 Climbing Cleveland Center
04:24PM 42.3056 -82.3014 88° East 373 429 17,600 960 Climbing Cleveland Center
04:25PM 42.3161 -82.1500 85° East 389 448 18,600 960 Climbing Cleveland Center
04:26PM 42.3283 -82.0014 84° East 396 456 19,600 960 Climbing Cleveland Center
04:27PM 42.3386 -81.8472 85° East 403 464 20,600 960 Climbing Cleveland Center
04:28PM 42.3508 -81.6761 84° East 410 472 21,600 900 Climbing Cleveland Center
04:29PM 42.3606 -81.5217 85° East 410 472 22,500 660 Climbing Cleveland Center
04:30PM 42.3700 -81.3644 85° East 410 472 23,000 480 Climbing Cleveland Center
04:31PM 42.3814 -81.2017 85° East 421 484 23,500 480 Climbing Cleveland Center
04:32PM 42.3925 -81.0358 85° East 436 502 24,000 480 Climbing Cleveland Center
04:33PM 42.4036 -80.8672 85° East 442 509 24,500 480 Climbing Cleveland Center
04:34PM 42.4122 -80.7014 86° East 448 516 25,000 540 Climbing Cleveland Center
04:35PM 42.4228 -80.5325 85° East 443 510 25,600 480 Climbing Cleveland Center
04:36PM 42.4331 -80.3833 85° East 443 510 26,000 420 Climbing Cleveland Center
04:37PM 42.4408 -80.2147 86° East 449 517 26,500 480 Climbing Cleveland Center
04:38PM 42.4486 -80.0458 86° East 444 511 27,000 240 Climbing Cleveland Center
04:39PM 42.4581 -79.8600 86° East 450 518 27,000  Level Cleveland Center
04:40PM 42.4714 -79.6853 84° East 450 518 27,000  Level Cleveland Center
04:41PM 42.4803 -79.5078 86° East 455 524 27,000  Level Cleveland Center
04:42PM 42.4889 -79.3303 86° East 466 536 27,000  Level Cleveland Center
04:43PM 42.5036 -79.1553 83° East 466 536 27,000  Level Cleveland Center
04:44PM 42.5117 -78.9806 86° East 466 536 27,000  Level Cleveland Center
04:45PM 42.5214 -78.8028 86° East 466 536 27,000  Level Cleveland Center
04:46PM 42.5333 -78.6278 85° East 466 536 27,000  Level Cleveland Center
04:47PM 42.5469 -78.4525 84° East 466 536 27,000  Level Cleveland Center
04:48PM 42.5581 -78.2775 85° East 466 536 27,000  Level Cleveland Center
04:49PM 42.5711 -78.0992 84° East 466 536 27,000  Level Cleveland Center
04:50PM 42.5836 -77.9183 85° East 466 536 27,000  Level Cleveland Center
04:51PM 42.5961 -77.7428 84° East 466 536 27,000  Level Cleveland Center
04:52PM 42.6178 -77.4378 84° East 480 552 27,000  Level Boston Center
04:53PM 42.6317 -77.2611 84° East 475 547 27,000  Level Boston Center
04:54PM 42.6456 -77.0786 84° East 475 547 27,000  Level Boston Center
04:55PM 42.6422 -76.8975 91° East 475 547 27,000  Level Boston Center
04:56PM 42.6431 -76.7142 90° East 475 547 27,000  Level Boston Center
04:57PM 42.6517 -76.5339 86° East 475 547 27,000  Level Boston Center
04:58PM 42.6603 -76.3536 86° East 475 547 27,000  Level Boston Center
04:59PM 42.6692 -76.1536 86° East 475 547 27,000  Level Boston Center
05:00PM 42.6769 -75.9678 87° East 475 547 27,000  Level Boston Center
05:01PM 42.6825 -75.7844 88° East 481 554 27,000  Level Boston Center
05:02PM 42.6922 -75.5983 86° East 481 554 27,000  Level Boston Center
05:03PM 42.6992 -75.4178 87° East 476 548 27,000  Level Boston Center
05:04PM 42.7039 -75.2317 88° East 481 554 27,000  Level Boston Center
05:05PM 42.7122 -75.0511 86° East 481 554 27,000  Level Boston Center
05:06PM 42.7183 -74.8650 87° East 476 548 27,000  Level Boston Center
05:07PM 42.7222 -74.6814 88° East 476 548 27,000  Level Boston Center
05:08PM 42.7278 -74.4978 88° East 476 548 27,000 -180 Level Boston Center
05:09PM 42.7331 -74.3142 88° East 476 548 26,700 -540 Descending Boston Center
05:10PM 42.7381 -74.1222 88° East 481 554 26,000 -1,200 Descending Boston Center
05:11PM 42.7428 -73.9414 88° East 481 554 24,400 -1,500 Descending Boston Center
05:12PM 42.7492 -73.7606 87° East 481 554 23,100 -1,140 Descending Boston Center
05:13PM 42.7550 -73.6022 87° East 471 542 22,200 -960 Descending Boston Center
05:14PM 42.7631 -73.4269 86° East 466 536 21,200 -1,020 Descending Boston Center
05:15PM 42.7706 -73.2575 86° East 460 529 20,200 -1,020 Descending Boston Center
05:16PM 42.7736 -73.0878 89° East 455 524 19,200 -600 Descending Boston Center
05:17PM 42.7786 -72.9181 88° East 455 524 19,000 -120 Descending Boston Center
05:18PM 42.7833 -72.7542 88° East 445 512 19,000 -480 Level Boston Center
05:19PM 42.7881 -72.5956 88° East 426 490 18,100 -1,440 Descending Boston Center
05:20PM 42.7900 -72.4514 89° East 404 465 16,100 -2,040 Descending Boston Center
05:21PM 42.7942 -72.3014 88° East 392 451 14,000 -2,160 Descending Boston Center
05:22PM 42.8044 -72.1431 85° East 382 440 11,900 -1,740 Descending Boston Center
05:23PM 42.8372 -72.0153 71° East 361 415 10,600 -1,200 Descending Boston Center
05:24PM 42.8681 -71.9075 69° East 324 373 9,500 -1,380 Descending Boston Center
05:25PM 42.9008 -71.8053 66° East 294 338 7,900 -1,560 Descending Boston Center
05:26PM 42.9294 -71.7056 69° East 289 333 6,500 -1,500 Descending Boston Center
05:27PM 42.9558 -71.6033 71° East 284 327 4,900 -1,080 Descending Boston Center
05:28PM 42.9969 -71.5289 53° Northeast 259 298 4,400 -780 Descending Boston Center
05:29PM 43.0278 -71.4744 52° Northeast 220 253 3,400 -1,200 Descending Boston Center
05:30PM 43.0042 -71.4039 115° Southeast 161 185 2,100 -1,200 Descending Boston Center
05:31PM 42.9667 -71.4044 181° South 131 151 1,100 3,480 Descending Boston Center
05:32PM 42.9442 -71.4303 220° Southwest 121 139 9,000 3,960 Climbing Boston Center
05:33PM 42.9086 -71.4394 191° South 121 139 9,000  Level Boston Center
05:34PM 42.8775 -71.4542 199° South 121 139 9,000  Level Boston Center
05:35PM 42.8464 -71.4689 199° South 121 139 9,000  Level Boston Center
05:37PM 42.9167 -71.4333 316° Northwest  Level FlightAware Approximate
05:44PM 42.9328 -71.4358 316° Northwest  Level Estimated
05:45PM 42.9328 -71.4358 316° Northwest  Level Estimated
05:46PM 42.9328 -71.4358 316° Northwest  Level Estimated
05:47PM 42.9328 -71.4358 316° Northwest  Level Estimated
05:48PM 42.9328 -71.4358 316° Northwest  Level Estimated